Time;durP1;ratioP1;P1;durP2;ratioP2;P2;SDS_P1;SDS_P2;PMS_P1;PMS_P2;Temp;Humidity;BMP_temperature;BMP_pressure;BME280_temperature;BME280_humidity;BME280_pressure;Samples;Min_cycle;Max_cycle;Signal;HPM_P1;HPM_P2
2023/10/18 00:24:00;;;;;;;24.40;21.80;;;;;;;;;;4795761;29;20494;-95
2023/10/18 00:35:39;;;;;;;23.27;20.98;;;;;;;;;;4917847;22;20538;-82
2023/10/18 00:38:10;;;;;;;22.70;18.87;;;;;;;;;;5075658;28;20266;-81
2023/10/18 00:40:39;;;;;;;23.08;20.70;;;;;;;;;;5057449;28;20484;-86
2023/10/18 00:45:44;;;;;;;25.08;22.45;;;;;;;;;;5091580;28;20412;-85
2023/10/18 00:48:11;;;;;;;21.80;19.47;;;;;;;;;;5077283;28;20198;-85
2023/10/18 00:50:42;;;;;;;21.40;19.10;;;;;;;;;;5094173;28;20253;-86
2023/10/18 00:53:08;;;;;;;20.87;18.50;;;;;;;;;;5077728;28;20269;-85
2023/10/18 00:55:34;;;;;;;21.50;18.27;;;;;;;;;;5062390;28;20195;-85
2023/10/18 00:58:05;;;;;;;20.70;18.60;;;;;;;;;;5073697;28;20178;-83
2023/10/18 01:00:32;;;;;;;24.75;22.25;;;;;;;;;;5056846;28;20464;-83
2023/10/18 01:03:03;;;;;;;22.03;19.77;;;;;;;;;;5064651;28;20191;-83
2023/10/18 01:05:29;;;;;;;22.00;19.07;;;;;;;;;;5058845;28;20187;-83
2023/10/18 01:07:58;;;;;;;22.77;18.77;;;;;;;;;;5056736;28;20202;-83
2023/10/18 01:10:25;;;;;;;25.23;22.55;;;;;;;;;;5077236;28;20414;-83
2023/10/18 01:12:54;;;;;;;22.00;19.17;;;;;;;;;;5062607;28;20187;-85
2023/10/18 01:15:21;;;;;;;25.15;22.45;;;;;;;;;;5092985;28;20413;-85
2023/10/18 01:17:47;;;;;;;21.33;19.23;;;;;;;;;;5093540;28;20198;-85
2023/10/18 01:22:58;;;;;;;23.47;19.60;;;;;;;;;;5094585;28;20192;-85
2023/10/18 01:25:24;;;;;;;23.53;19.80;;;;;;;;;;5093940;28;20262;-85
2023/10/18 01:27:51;;;;;;;21.53;18.90;;;;;;;;;;5077104;28;20202;-86
2023/10/18 01:30:19;;;;;;;22.30;19.90;;;;;;;;;;5069090;28;20186;-85
2023/10/18 01:32:45;;;;;;;22.20;19.80;;;;;;;;;;5094849;28;20253;-84
2023/10/18 01:35:13;;;;;;;25.13;22.55;;;;;;;;;;5081750;28;20418;-84
2023/10/18 01:37:39;;;;;;;22.10;19.33;;;;;;;;;;5086418;28;20187;-85
2023/10/18 01:42:57;;;;;;;23.13;19.73;;;;;;;;;;5086006;28;20178;-84
2023/10/18 01:45:23;;;;;;;22.50;20.03;;;;;;;;;;5067669;28;20182;-84
2023/10/18 01:47:51;;;;;;;24.38;21.92;;;;;;;;;;5075762;28;20436;-85
2023/10/18 01:50:18;;;;;;;21.40;19.10;;;;;;;;;;5068803;28;20187;-85
2023/10/18 01:52:44;;;;;;;25.03;19.23;;;;;;;;;;5078782;28;20187;-85
2023/10/18 01:55:12;;;;;;;24.30;21.80;;;;;;;;;;5056243;28;20439;-86
2023/10/18 01:57:38;;;;;;;24.15;21.70;;;;;;;;;;5087431;28;20416;-85
2023/10/18 02:00:05;;;;;;;21.07;18.77;;;;;;;;;;5090344;28;20210;-85
2023/10/18 02:02:32;;;;;;;20.73;18.53;;;;;;;;;;5078901;28;20178;-86
2023/10/18 02:04:59;;;;;;;21.27;18.90;;;;;;;;;;5075717;28;20219;-85
2023/10/18 02:07:25;;;;;;;21.90;19.50;;;;;;;;;;5093166;28;20174;-86
2023/10/18 02:09:57;;;;;;;24.42;21.83;;;;;;;;;;5076260;28;20402;-86
2023/10/18 02:12:27;;;;;;;22.20;19.70;;;;;;;;;;5068334;28;20202;-86
2023/10/18 02:14:55;;;;;;;22.73;19.57;;;;;;;;;;5077079;28;20232;-86
2023/10/18 02:17:22;;;;;;;20.87;18.70;;;;;;;;;;5093563;28;20175;-86
2023/10/18 02:19:48;;;;;;;20.73;18.53;;;;;;;;;;5073196;28;20233;-86
2023/10/18 02:22:16;;;;;;;21.07;18.87;;;;;;;;;;5076672;28;20175;-86
2023/10/18 02:24:45;;;;;;;22.63;19.63;;;;;;;;;;5097217;28;20195;-86
2023/10/18 02:27:19;;;;;;;20.77;18.50;;;;;;;;;;5074567;28;20201;-86
2023/10/18 02:29:46;;;;;;;24.73;22.17;;;;;;;;;;5060835;28;20410;-86
2023/10/18 02:34:57;;;;;;;25.00;21.80;;;;;;;;;;5097655;28;20404;-86
2023/10/18 02:37:25;;;;;;;22.30;19.73;;;;;;;;;;5079454;28;20226;-84
2023/10/18 02:40:07;;;;;;;22.73;19.20;;;;;;;;;;5080484;28;20182;-84
2023/10/18 02:42:33;;;;;;;21.00;18.53;;;;;;;;;;5096066;28;20198;-84
2023/10/18 02:44:59;;;;;;;26.10;22.15;;;;;;;;;;5072973;28;20441;-84
2023/10/18 02:47:26;;;;;;;23.23;20.73;;;;;;;;;;5079544;28;20175;-84
2023/10/18 02:49:52;;;;;;;22.73;20.30;;;;;;;;;;5078788;28;20434;-84
2023/10/18 02:52:18;;;;;;;21.93;19.03;;;;;;;;;;5059293;28;20178;-84
2023/10/18 02:54:45;;;;;;;23.70;19.93;;;;;;;;;;5088533;28;20194;-83
2023/10/18 02:57:13;;;;;;;23.37;19.90;;;;;;;;;;5087927;28;20187;-83
2023/10/18 02:59:41;;;;;;;25.30;22.65;;;;;;;;;;5091990;28;20493;-83
2023/10/18 03:02:13;;;;;;;22.27;19.80;;;;;;;;;;5059167;28;20195;-84
2023/10/18 03:04:39;;;;;;;23.43;19.70;;;;;;;;;;5085218;28;20187;-83
2023/10/18 03:07:08;;;;;;;24.73;22.10;;;;;;;;;;5076613;22;20496;-78
2023/10/18 03:12:02;;;;;;;26.25;23.45;;;;;;;;;;5042708;28;20410;-76
2023/10/18 03:17:15;;;;;;;22.70;20.30;;;;;;;;;;5035998;28;20189;-77
2023/10/18 03:19:45;;;;;;;24.67;22.08;;;;;;;;;;5018779;28;20419;-77
2023/10/18 03:22:11;;;;;;;26.73;23.63;;;;;;;;;;5045028;28;20437;-77
2023/10/18 03:24:38;;;;;;;23.67;19.67;;;;;;;;;;5051892;28;20223;-76
2023/10/18 03:27:14;;;;;;;25.07;19.67;;;;;;;;;;5034610;28;20177;-77
2023/10/18 03:29:43;;;;;;;22.67;19.73;;;;;;;;;;5046608;28;20176;-77
2023/10/18 03:32:19;;;;;;;25.77;20.17;;;;;;;;;;5019306;28;20185;-77
2023/10/18 03:34:45;;;;;;;24.20;21.27;;;;;;;;;;5032437;28;20272;-76
2023/10/18 03:37:20;;;;;;;26.33;23.58;;;;;;;;;;5045364;28;20424;-77
2023/10/18 03:39:48;;;;;;;23.87;20.97;;;;;;;;;;5031884;28;20256;-76
2023/10/18 03:42:30;;;;;;;24.23;20.93;;;;;;;;;;5044082;28;20181;-76
2023/10/18 03:44:57;;;;;;;27.03;21.73;;;;;;;;;;5032334;28;20191;-76
2023/10/18 03:47:28;;;;;;;23.73;20.93;;;;;;;;;;5035810;28;20185;-77
2023/10/18 03:49:55;;;;;;;25.43;21.20;;;;;;;;;;5034799;28;20191;-77
2023/10/18 03:52:26;;;;;;;25.37;21.63;;;;;;;;;;5018605;28;20223;-77
2023/10/18 03:57:29;;;;;;;27.57;22.70;;;;;;;;;;5026146;28;20185;-77
2023/10/18 03:59:58;;;;;;;24.27;21.67;;;;;;;;;;5031300;28;20181;-77
2023/10/18 04:02:27;;;;;;;25.00;20.83;;;;;;;;;;5045360;28;20237;-77
2023/10/18 04:05:00;;;;;;;23.10;20.50;;;;;;;;;;5040615;28;20177;-77
2023/10/18 04:07:27;;;;;;;27.13;21.93;;;;;;;;;;5031127;28;20220;-77
2023/10/18 04:12:19;;;;;;;25.93;21.77;;;;;;;;;;5015697;28;20197;-77
2023/10/18 04:14:52;;;;;;;28.73;21.87;;;;;;;;;;5024656;28;20189;-77
2023/10/18 04:20:01;;;;;;;25.77;22.00;;;;;;;;;;5015473;28;20188;-78
2023/10/18 04:22:28;;;;;;;24.17;21.40;;;;;;;;;;5024087;28;20275;-78
2023/10/18 04:24:54;;;;;;;24.00;21.57;;;;;;;;;;5027371;28;20184;-78
2023/10/18 04:27:21;;;;;;;24.03;21.43;;;;;;;;;;5034053;28;20234;-78
2023/10/18 04:29:49;;;;;;;26.93;22.50;;;;;;;;;;5050428;28;20235;-78
2023/10/18 04:32:18;;;;;;;25.13;21.53;;;;;;;;;;5034080;28;20192;-78
2023/10/18 04:34:46;;;;;;;26.13;21.47;;;;;;;;;;5029076;28;20176;-77
2023/10/18 04:37:12;;;;;;;24.43;21.43;;;;;;;;;;5042251;28;20188;-76
2023/10/18 04:39:40;;;;;;;25.83;23.15;;;;;;;;;;5031958;28;20429;-77
2023/10/18 04:42:06;;;;;;;23.63;20.53;;;;;;;;;;5020264;28;20216;-76
2023/10/18 04:44:36;;;;;;;24.27;20.80;;;;;;;;;;5039957;28;20456;-76
2023/10/18 04:47:14;;;;;;;23.93;20.27;;;;;;;;;;5014654;28;20180;-77
2023/10/18 04:49:40;;;;;;;23.47;20.90;;;;;;;;;;5030623;28;20185;-77
2023/10/18 04:52:28;;;;;;;24.93;20.80;;;;;;;;;;5030213;28;20241;-78
2023/10/18 04:55:00;;;;;;;22.63;20.30;;;;;;;;;;5049147;28;20186;-76
2023/10/18 04:57:26;;;;;;;24.10;20.63;;;;;;;;;;5036338;28;20214;-76
2023/10/18 04:59:52;;;;;;;24.97;21.17;;;;;;;;;;5025040;28;20223;-76
2023/10/18 05:02:25;;;;;;;22.57;20.17;;;;;;;;;;5049828;28;20263;-78
2023/10/18 05:04:52;;;;;;;23.00;20.60;;;;;;;;;;5034347;28;20212;-78
2023/10/18 05:07:21;;;;;;;22.93;20.53;;;;;;;;;;5033802;28;20306;-80
2023/10/18 05:09:55;;;;;;;24.60;20.00;;;;;;;;;;5046716;28;20259;-80
2023/10/18 05:17:26;;;;;;;23.03;20.47;;;;;;;;;;5031772;28;20187;-80
2023/10/18 05:19:56;;;;;;;22.97;19.93;;;;;;;;;;5033123;28;20177;-76
2023/10/18 05:22:25;;;;;;;22.63;20.23;;;;;;;;;;5029921;28;20199;-77
2023/10/18 05:25:21;;;;;;;20.60;18.40;;;;;;;;;;5033257;28;20275;-77
2023/10/18 05:28:28;;;;;;;21.57;19.27;;;;;;;;;;5027691;28;20205;-77
2023/10/18 05:41:28;;;;;;;22.43;19.40;;;;;;;;;;5015455;28;20258;-78
2023/10/18 05:44:01;;;;;;;23.10;20.57;;;;;;;;;;5049292;28;20180;-78
2023/10/18 05:46:27;;;;;;;22.27;19.17;;;;;;;;;;5015964;28;20185;-78
2023/10/18 05:48:57;;;;;;;22.37;19.80;;;;;;;;;;5027593;28;20184;-78
2023/10/18 05:51:26;;;;;;;21.50;19.20;;;;;;;;;;5020295;28;20260;-78
2023/10/18 05:53:59;;;;;;;21.57;19.27;;;;;;;;;;5029521;28;20177;-78
2023/10/18 05:56:32;;;;;;;21.77;19.10;;;;;;;;;;5044975;28;20187;-77
2023/10/18 06:01:43;;;;;;;23.73;20.33;;;;;;;;;;5033071;28;20300;-77
2023/10/18 06:04:09;;;;;;;23.73;19.87;;;;;;;;;;5026304;28;20176;-77
2023/10/18 06:06:38;;;;;;;23.27;20.17;;;;;;;;;;5024168;28;20228;-77
2023/10/18 06:09:11;;;;;;;22.70;20.03;;;;;;;;;;5040971;28;20181;-77
2023/10/18 06:11:40;;;;;;;24.10;20.60;;;;;;;;;;5048699;28;20181;-77
2023/10/18 06:14:08;;;;;;;23.13;20.50;;;;;;;;;;5042495;28;20188;-78
2023/10/18 06:16:34;;;;;;;22.67;19.50;;;;;;;;;;5040625;28;20184;-78
2023/10/18 06:19:06;;;;;;;23.17;19.57;;;;;;;;;;5021929;28;20187;-78
2023/10/18 06:21:36;;;;;;;22.10;19.80;;;;;;;;;;5053152;28;20232;-78
2023/10/18 06:24:10;;;;;;;24.60;19.53;;;;;;;;;;5037632;28;20165;-78
2023/10/18 06:26:38;;;;;;;24.63;20.43;;;;;;;;;;5043267;28;20181;-78
2023/10/18 06:29:22;;;;;;;23.20;20.00;;;;;;;;;;5033002;28;20260;-78
2023/10/18 06:31:49;;;;;;;22.87;20.43;;;;;;;;;;5049718;28;20188;-76
2023/10/18 06:34:18;;;;;;;22.03;19.60;;;;;;;;;;5036380;28;20238;-77
2023/10/18 06:36:47;;;;;;;22.70;19.57;;;;;;;;;;5032652;28;20184;-76
2023/10/18 06:39:24;;;;;;;22.73;20.33;;;;;;;;;;5037249;28;20179;-77
2023/10/18 06:41:55;;;;;;;20.87;18.77;;;;;;;;;;5049248;28;20211;-76
2023/10/18 06:44:27;;;;;;;26.60;19.53;;;;;;;;;;5017398;28;20193;-76
2023/10/18 06:46:53;;;;;;;21.93;19.43;;;;;;;;;;5033186;28;20245;-78
2023/10/18 06:49:19;;;;;;;21.63;19.33;;;;;;;;;;5042366;28;20218;-80
2023/10/18 06:51:50;;;;;;;22.90;18.63;;;;;;;;;;5034833;28;20234;-80
2023/10/18 06:54:30;;;;;;;21.97;19.27;;;;;;;;;;5036767;28;20246;-80
2023/10/18 06:56:57;;;;;;;20.57;18.20;;;;;;;;;;5052349;28;20200;-78
2023/10/18 06:59:27;;;;;;;21.67;19.17;;;;;;;;;;5026046;28;20193;-79
2023/10/18 07:01:59;;;;;;;21.47;18.27;;;;;;;;;;5025963;28;20262;-78
2023/10/18 07:04:29;;;;;;;20.97;18.57;;;;;;;;;;5037049;28;20181;-77
2023/10/18 07:06:55;;;;;;;20.13;17.93;;;;;;;;;;5035768;28;20212;-77
2023/10/18 07:09:36;;;;;;;20.50;18.40;;;;;;;;;;5036161;28;20169;-77
2023/10/18 07:12:10;;;;;;;21.07;17.87;;;;;;;;;;5050189;28;20184;-78
2023/10/18 07:14:37;;;;;;;21.03;18.83;;;;;;;;;;5037261;28;20247;-80
2023/10/18 07:17:04;;;;;;;22.07;18.33;;;;;;;;;;5018636;28;20257;-76
2023/10/18 07:19:33;;;;;;;21.03;18.63;;;;;;;;;;5032518;28;20195;-76
2023/10/18 07:22:04;;;;;;;22.70;18.17;;;;;;;;;;5036423;28;20197;-76
2023/10/18 07:24:38;;;;;;;22.83;18.40;;;;;;;;;;5031508;28;20173;-77
2023/10/18 07:27:04;;;;;;;20.80;17.90;;;;;;;;;;5035580;28;20232;-76
2023/10/18 07:29:31;;;;;;;18.80;16.90;;;;;;;;;;5051846;28;20173;-80
2023/10/18 07:31:59;;;;;;;19.30;17.00;;;;;;;;;;5035358;28;20209;-80
2023/10/18 07:34:36;;;;;;;19.37;17.20;;;;;;;;;;5035273;28;20180;-80
2023/10/18 07:37:17;;;;;;;19.60;17.27;;;;;;;;;;5035524;28;20191;-77
2023/10/18 07:39:44;;;;;;;19.57;16.97;;;;;;;;;;5051690;28;20188;-76
2023/10/18 07:42:11;;;;;;;20.03;16.90;;;;;;;;;;5039111;28;20262;-76
2023/10/18 07:44:41;;;;;;;19.47;16.67;;;;;;;;;;5024191;28;20200;-77
2023/10/18 07:47:17;;;;;;;17.73;15.93;;;;;;;;;;5048776;28;20211;-76
2023/10/18 07:49:45;;;;;;;18.53;15.77;;;;;;;;;;5051424;28;20188;-77
2023/10/18 07:52:11;;;;;;;18.30;16.13;;;;;;;;;;5051415;28;20181;-76
2023/10/18 07:54:37;;;;;;;18.47;16.57;;;;;;;;;;5035863;28;20284;-77
2023/10/18 07:57:03;;;;;;;18.90;16.23;;;;;;;;;;5034678;28;20226;-77
2023/10/18 07:59:30;;;;;;;18.10;16.27;;;;;;;;;;5034734;28;20185;-77
2023/10/18 08:04:38;;;;;;;18.47;16.40;;;;;;;;;;5035865;28;20270;-77
2023/10/18 08:07:05;;;;;;;17.37;15.57;;;;;;;;;;5034806;28;20221;-77
2023/10/18 08:09:31;;;;;;;16.93;15.23;;;;;;;;;;5035491;28;20173;-77
2023/10/18 08:12:05;;;;;;;16.67;14.97;;;;;;;;;;5035484;28;20173;-77
2023/10/18 08:14:32;;;;;;;16.40;14.73;;;;;;;;;;5035573;28;20180;-77
2023/10/18 08:17:08;;;;;;;17.57;15.17;;;;;;;;;;5035408;28;20177;-77
2023/10/18 08:19:43;;;;;;;18.33;15.73;;;;;;;;;;5033656;28;20202;-77
2023/10/18 08:24:35;;;;;;;16.07;14.37;;;;;;;;;;5035070;28;20227;-77
2023/10/18 08:27:10;;;;;;;17.10;15.27;;;;;;;;;;5050577;28;20176;-80
2023/10/18 08:29:41;;;;;;;19.13;13.83;;;;;;;;;;5035018;28;20179;-80
2023/10/18 08:32:16;;;;;;;16.10;13.90;;;;;;;;;;5033980;28;20233;-80
2023/10/18 08:34:43;;;;;;;16.33;14.63;;;;;;;;;;5015647;28;20193;-80
2023/10/18 08:37:13;;;;;;;14.93;13.07;;;;;;;;;;5034894;28;20267;-79
2023/10/18 08:39:39;;;;;;;14.67;13.27;;;;;;;;;;5019499;28;20189;-79
2023/10/18 08:42:05;;;;;;;14.60;13.10;;;;;;;;;;5030442;28;20209;-78
2023/10/18 08:44:32;;;;;;;16.33;12.93;;;;;;;;;;5030724;28;20177;-78
2023/10/18 08:49:51;;;;;;;14.73;12.50;;;;;;;;;;5035138;28;20180;-80
2023/10/18 08:52:20;;;;;;;13.90;12.50;;;;;;;;;;5021340;28;20232;-78
2023/10/18 08:54:59;;;;;;;13.07;11.67;;;;;;;;;;5033243;28;20187;-78
2023/10/18 08:57:34;;;;;;;13.43;12.03;;;;;;;;;;5050402;28;20181;-78
2023/10/18 09:02:51;;;;;;;12.73;11.43;;;;;;;;;;5046368;28;20235;-81
2023/10/18 09:05:22;;;;;;;14.03;10.63;;;;;;;;;;5031809;28;20189;-81
2023/10/18 09:07:49;;;;;;;11.87;10.60;;;;;;;;;;5028308;28;20259;-81
2023/10/18 09:10:33;;;;;;;12.67;9.97;;;;;;;;;;5023819;28;20211;-81
2023/10/18 09:15:48;;;;;;;10.93;9.60;;;;;;;;;;5014781;28;20182;-81
2023/10/18 09:18:14;;;;;;;10.63;9.43;;;;;;;;;;5020997;28;20181;-78
2023/10/18 09:20:40;;;;;;;10.57;9.47;;;;;;;;;;5031117;28;20308;-78
2023/10/18 09:23:14;;;;;;;9.80;8.90;;;;;;;;;;5029756;28;20185;-78
2023/10/18 09:25:48;;;;;;;9.60;8.17;;;;;;;;;;5028097;28;20184;-78
2023/10/18 09:28:33;;;;;;;11.23;8.70;;;;;;;;;;5037522;28;20283;-78
2023/10/18 09:31:21;;;;;;;12.23;8.27;;;;;;;;;;5034574;28;20181;-78
2023/10/18 09:33:58;;;;;;;8.60;7.57;;;;;;;;;;5033336;28;20184;-78
2023/10/18 09:36:24;;;;;;;10.77;8.33;;;;;;;;;;5036580;28;20184;-75
2023/10/18 09:38:51;;;;;;;9.57;7.43;;;;;;;;;;5032976;28;20185;-75
2023/10/18 09:41:18;;;;;;;8.37;7.50;;;;;;;;;;5040058;28;20212;-79
2023/10/18 09:43:48;;;;;;;8.10;7.30;;;;;;;;;;5030321;28;20201;-79
2023/10/18 09:46:15;;;;;;;9.10;6.40;;;;;;;;;;5014679;28;20173;-79
2023/10/18 09:48:46;;;;;;;8.00;7.20;;;;;;;;;;5030171;28;20181;-79
2023/10/18 09:51:21;;;;;;;8.03;7.03;;;;;;;;;;5040823;28;20199;-76
2023/10/18 09:53:50;;;;;;;8.27;7.07;;;;;;;;;;5039011;28;20286;-75
2023/10/18 09:56:18;;;;;;;9.07;7.13;;;;;;;;;;5033911;28;20176;-76
2023/10/18 09:58:46;;;;;;;7.50;6.70;;;;;;;;;;5031800;28;20196;-75
2023/10/18 10:01:55;;;;;;;7.80;7.00;;;;;;;;;;5038743;28;20299;-76
2023/10/18 10:04:18;;;;;;;9.20;6.80;;;;;;;;;;5018488;28;20197;-75
2023/10/18 10:06:47;;;;;;;9.37;7.40;;;;;;;;;;5039385;28;20233;-77
2023/10/18 10:09:14;;;;;;;8.83;6.93;;;;;;;;;;5022685;28;20206;-77
2023/10/18 10:11:43;;;;;;;7.80;6.90;;;;;;;;;;5039072;28;20177;-77
2023/10/18 10:14:21;;;;;;;9.13;7.47;;;;;;;;;;5032889;28;20181;-77
2023/10/18 10:16:57;;;;;;;11.13;7.37;;;;;;;;;;5032657;28;20246;-77
2023/10/18 10:19:31;;;;;;;10.17;7.63;;;;;;;;;;5045107;28;20180;-77
2023/10/18 10:22:05;;;;;;;8.13;7.00;;;;;;;;;;5024675;28;20208;-77
2023/10/18 10:24:43;;;;;;;9.10;7.60;;;;;;;;;;5021651;28;20181;-77
2023/10/18 10:27:49;;;;;;;11.93;7.77;;;;;;;;;;5026751;28;20199;-77
2023/10/18 10:32:53;;;;;;;10.27;7.37;;;;;;;;;;5033941;28;20173;-77
2023/10/18 10:35:26;;;;;;;8.73;7.30;;;;;;;;;;5049493;28;20176;-77
2023/10/18 10:37:52;;;;;;;14.77;7.33;;;;;;;;;;5091802;22;20332;-75
2023/10/18 10:43:01;;;;;;;9.43;7.25;;;;;;;;;;5091589;28;20403;-80
2023/10/18 10:45:39;;;;;;;8.53;6.80;;;;;;;;;;5078689;28;20214;-80
2023/10/18 10:51:06;;;;;;;10.57;7.07;;;;;;;;;;5078572;28;20219;-80
2023/10/18 10:53:44;;;;;;;7.23;6.30;;;;;;;;;;5076129;28;20179;-80
2023/10/18 10:56:19;;;;;;;7.80;6.90;;;;;;;;;;5076304;28;20217;-78
2023/10/18 10:58:46;;;;;;;8.43;6.83;;;;;;;;;;5083168;28;20209;-77
2023/10/18 11:01:13;;;;;;;7.77;6.70;;;;;;;;;;5090691;28;20198;-77
2023/10/18 11:03:54;;;;;;;7.70;6.90;;;;;;;;;;5077594;28;20175;-77
2023/10/18 11:06:22;;;;;;;9.10;6.57;;;;;;;;;;5083214;28;20174;-77
2023/10/18 11:08:48;;;;;;;9.03;7.13;;;;;;;;;;5089177;28;20167;-77
2023/10/18 11:11:14;;;;;;;7.40;6.70;;;;;;;;;;5064290;28;20187;-77
2023/10/18 11:13:41;;;;;;;7.37;6.67;;;;;;;;;;5101244;28;20186;-76
2023/10/18 11:16:07;;;;;;;7.53;6.43;;;;;;;;;;5095457;28;20182;-75
2023/10/18 11:18:42;;;;;;;7.77;6.17;;;;;;;;;;5080119;28;20190;-76
2023/10/18 11:23:57;;;;;;;7.33;6.53;;;;;;;;;;5089970;28;20198;-76
2023/10/18 11:26:27;;;;;;;8.13;6.97;;;;;;;;;;5084174;28;20251;-76
2023/10/18 11:28:59;;;;;;;9.67;6.97;;;;;;;;;;5091683;28;20180;-76
2023/10/18 11:31:26;;;;;;;7.40;6.60;;;;;;;;;;5077161;28;20189;-76
2023/10/18 11:33:59;;;;;;;8.10;6.93;;;;;;;;;;5077680;28;20194;-75
2023/10/18 11:36:27;;;;;;;9.87;7.10;;;;;;;;;;5059442;28;20230;-76
2023/10/18 11:41:38;;;;;;;8.63;6.47;;;;;;;;;;5091484;28;20229;-76
2023/10/18 11:44:08;;;;;;;9.53;6.60;;;;;;;;;;5087253;28;20194;-75
2023/10/18 11:46:47;;;;;;;9.13;7.10;;;;;;;;;;5083025;28;20183;-80
2023/10/18 11:49:14;;;;;;;9.07;7.27;;;;;;;;;;5072069;28;20270;-80
2023/10/18 11:51:48;;;;;;;8.37;7.20;;;;;;;;;;5058701;28;20194;-80
2023/10/18 11:54:34;;;;;;;7.33;6.60;;;;;;;;;;5091307;28;20179;-79
2023/10/18 11:57:01;;;;;;;8.20;6.53;;;;;;;;;;5074589;28;20187;-80
2023/10/18 11:59:31;;;;;;;8.27;6.60;;;;;;;;;;5078589;28;20191;-80
2023/10/18 12:01:58;;;;;;;7.33;6.60;;;;;;;;;;5067161;28;20210;-79
2023/10/18 12:04:27;;;;;;;7.97;6.87;;;;;;;;;;5078107;28;20246;-75
2023/10/18 12:06:57;;;;;;;8.00;6.90;;;;;;;;;;5058124;28;20515;-75
2023/10/18 12:11:51;;;;;;;8.18;7.30;;;;;;;;;;5094859;28;20399;-75
2023/10/18 12:14:18;;;;;;;8.17;6.70;;;;;;;;;;5094265;28;20404;-75
2023/10/18 12:16:44;;;;;;;6.87;6.00;;;;;;;;;;5071072;28;20426;-75
2023/10/18 12:19:10;;;;;;;7.43;6.63;;;;;;;;;;5074222;28;20182;-75
2023/10/18 12:21:37;;;;;;;8.23;6.37;;;;;;;;;;5074218;28;20203;-75
2023/10/18 12:24:07;;;;;;;7.80;6.37;;;;;;;;;;5082438;28;20218;-75
2023/10/18 12:26:34;;;;;;;7.37;6.57;;;;;;;;;;5088952;28;20193;-76
2023/10/18 12:29:06;;;;;;;6.90;6.27;;;;;;;;;;5089079;28;20182;-75
2023/10/18 12:31:39;;;;;;;7.90;6.17;;;;;;;;;;5093606;28;20217;-75
2023/10/18 12:34:05;;;;;;;7.30;6.60;;;;;;;;;;5074000;28;20240;-76
2023/10/18 12:36:49;;;;;;;7.37;6.00;;;;;;;;;;5091138;28;20289;-76
2023/10/18 12:39:22;;;;;;;7.63;6.73;;;;;;;;;;5072818;28;20195;-77
2023/10/18 12:41:57;;;;;;;10.30;6.83;;;;;;;;;;5088798;28;20230;-77
2023/10/18 12:44:25;;;;;;;10.73;6.40;;;;;;;;;;5084195;28;20229;-77
2023/10/18 12:46:53;;;;;;;7.53;6.27;;;;;;;;;;5070269;28;20239;-77
2023/10/18 12:49:22;;;;;;;6.87;6.17;;;;;;;;;;5086261;28;20191;-76
2023/10/18 12:51:57;;;;;;;7.27;6.20;;;;;;;;;;5080949;28;20213;-76
2023/10/18 12:54:30;;;;;;;7.00;6.25;;;;;;;;;;5086892;28;20464;-76
2023/10/18 12:56:58;;;;;;;7.18;5.88;;;;;;;;;;5077276;28;20078;-76
2023/10/18 12:59:24;;;;;;;10.23;6.00;;;;;;;;;;5085071;28;20235;-76
2023/10/18 13:01:58;;;;;;;7.10;6.13;;;;;;;;;;5093658;28;20214;-75
2023/10/18 13:04:24;;;;;;;7.00;6.07;;;;;;;;;;5069690;28;20193;-76
2023/10/18 13:06:50;;;;;;;7.30;6.10;;;;;;;;;;5062890;28;20183;-76
2023/10/18 13:09:20;;;;;;;7.30;5.87;;;;;;;;;;5077248;28;20185;-76
2023/10/18 13:14:23;;;;;;;7.68;6.57;;;;;;;;;;5091421;28;20434;-79
2023/10/18 13:16:49;;;;;;;7.70;6.57;;;;;;;;;;5086353;28;20470;-80
2023/10/18 13:19:15;;;;;;;6.90;5.93;;;;;;;;;;5072370;28;20205;-80
2023/10/18 13:21:43;;;;;;;6.60;6.00;;;;;;;;;;5060055;28;20207;-80
2023/10/18 13:26:54;;;;;;;8.80;6.43;;;;;;;;;;5088246;28;20231;-76
2023/10/18 13:31:47;;;;;;;7.23;6.03;;;;;;;;;;5076267;28;20244;-76
2023/10/18 13:34:18;;;;;;;6.70;6.00;;;;;;;;;;5062581;28;20202;-76
2023/10/18 13:36:49;;;;;;;6.80;6.03;;;;;;;;;;5081766;28;20274;-76
2023/10/18 13:39:16;;;;;;;7.37;5.77;;;;;;;;;;5084624;28;20221;-76
2023/10/18 13:41:46;;;;;;;7.03;6.00;;;;;;;;;;5087944;28;20289;-76
2023/10/18 13:44:13;;;;;;;7.60;6.23;;;;;;;;;;5087384;28;20181;-77
2023/10/18 13:46:39;;;;;;;10.63;5.90;;;;;;;;;;5089262;28;20203;-77
2023/10/18 13:49:08;;;;;;;9.10;5.90;;;;;;;;;;5058295;28;20217;-77
2023/10/18 13:51:37;;;;;;;9.53;6.10;;;;;;;;;;5080266;28;20277;-77
2023/10/18 13:54:04;;;;;;;8.00;6.35;;;;;;;;;;5079466;28;20418;-77
2023/10/18 13:56:31;;;;;;;6.97;6.28;;;;;;;;;;5060468;28;20418;-77
2023/10/18 13:58:57;;;;;;;6.17;5.57;;;;;;;;;;5083456;28;20190;-77
2023/10/18 14:01:24;;;;;;;6.63;5.67;;;;;;;;;;5062677;28;20310;-77
2023/10/18 14:03:51;;;;;;;9.50;5.80;;;;;;;;;;5090641;28;20177;-77
2023/10/18 14:06:18;;;;;;;6.70;5.50;;;;;;;;;;5092250;28;20178;-77
2023/10/18 14:08:45;;;;;;;7.88;6.65;;;;;;;;;;5086040;28;20397;-77
2023/10/18 14:11:15;;;;;;;8.10;6.50;;;;;;;;;;5087645;28;20328;-77
2023/10/18 14:13:44;;;;;;;7.63;6.40;;;;;;;;;;5087723;28;20221;-77
2023/10/18 14:16:17;;;;;;;7.40;5.67;;;;;;;;;;5085252;28;20187;-77
2023/10/18 14:18:47;;;;;;;7.00;6.05;;;;;;;;;;5093562;28;20426;-77
2023/10/18 14:21:14;;;;;;;7.95;6.32;;;;;;;;;;5086279;28;20430;-77
2023/10/18 14:23:45;;;;;;;8.00;6.57;;;;;;;;;;5087946;28;20442;-77
2023/10/18 14:26:11;;;;;;;7.70;6.60;;;;;;;;;;5078088;28;20426;-77
2023/10/18 14:28:40;;;;;;;7.40;6.47;;;;;;;;;;5088115;28;20411;-77
2023/10/18 14:31:13;;;;;;;10.45;6.72;;;;;;;;;;5092450;28;20499;-77
2023/10/18 14:33:42;;;;;;;7.88;6.50;;;;;;;;;;5087633;28;20428;-75
2023/10/18 14:36:09;;;;;;;8.40;6.70;;;;;;;;;;5089150;28;20443;-76
2023/10/18 14:38:35;;;;;;;8.67;6.57;;;;;;;;;;5091147;28;20237;-76
2023/10/18 14:41:03;;;;;;;7.38;6.47;;;;;;;;;;5079896;28;20422;-76
2023/10/18 14:43:29;;;;;;;8.13;6.13;;;;;;;;;;5093109;28;20236;-76
2023/10/18 14:45:56;;;;;;;7.47;6.13;;;;;;;;;;5075214;28;20200;-76
2023/10/18 14:48:22;;;;;;;7.40;5.83;;;;;;;;;;5094318;28;20186;-75
2023/10/18 14:50:51;;;;;;;9.70;5.73;;;;;;;;;;5090652;28;20179;-77
2023/10/18 14:53:18;;;;;;;10.43;6.30;;;;;;;;;;5073868;28;20186;-77
2023/10/18 14:55:44;;;;;;;7.00;5.97;;;;;;;;;;5094073;28;20187;-77
2023/10/18 14:58:11;;;;;;;6.83;5.70;;;;;;;;;;5088726;28;20183;-77
2023/10/18 15:00:39;;;;;;;6.63;5.90;;;;;;;;;;5091072;28;20235;-77
2023/10/18 15:03:06;;;;;;;7.57;5.50;;;;;;;;;;5075083;28;20183;-77
2023/10/18 15:05:37;;;;;;;6.40;5.43;;;;;;;;;;5086694;28;20193;-77
2023/10/18 15:08:05;;;;;;;6.83;5.60;;;;;;;;;;5093326;28;20175;-78
2023/10/18 15:10:31;;;;;;;5.97;5.37;;;;;;;;;;5086263;28;20191;-78
2023/10/18 15:12:59;;;;;;;7.47;5.77;;;;;;;;;;5070203;28;20183;-77
2023/10/18 15:15:26;;;;;;;8.47;5.73;;;;;;;;;;5090546;28;20186;-77
2023/10/18 15:17:55;;;;;;;7.67;5.83;;;;;;;;;;5095317;28;20228;-77
2023/10/18 15:20:22;;;;;;;8.03;5.50;;;;;;;;;;5085866;28;20218;-78
2023/10/18 15:22:52;;;;;;;5.93;5.40;;;;;;;;;;5092968;28;20178;-77
2023/10/18 15:25:19;;;;;;;6.47;5.33;;;;;;;;;;5094830;28;20195;-77
2023/10/18 15:27:47;;;;;;;7.53;6.40;;;;;;;;;;5094501;28;20456;-77
2023/10/18 15:30:16;;;;;;;6.77;5.70;;;;;;;;;;5095112;28;20174;-76
2023/10/18 15:32:42;;;;;;;8.23;6.07;;;;;;;;;;5087309;28;20170;-76
2023/10/18 15:35:12;;;;;;;6.40;5.67;;;;;;;;;;5094720;28;20187;-76
2023/10/18 15:37:38;;;;;;;7.93;5.50;;;;;;;;;;5071499;28;20226;-76
2023/10/18 15:40:04;;;;;;;7.10;5.93;;;;;;;;;;5093702;28;20186;-76
2023/10/18 15:42:30;;;;;;;8.47;5.67;;;;;;;;;;5086565;28;20211;-77
2023/10/18 15:44:56;;;;;;;6.10;5.20;;;;;;;;;;5075568;28;20179;-77
2023/10/18 15:47:25;;;;;;;8.03;5.20;;;;;;;;;;5075155;28;20195;-77
2023/10/18 15:49:53;;;;;;;5.87;5.23;;;;;;;;;;5075646;28;20180;-76
2023/10/18 15:52:20;;;;;;;7.50;5.33;;;;;;;;;;5092129;28;20186;-76
2023/10/18 15:54:49;;;;;;;6.23;5.47;;;;;;;;;;5077267;28;20257;-77
2023/10/18 15:57:15;;;;;;;7.70;5.40;;;;;;;;;;5082173;28;20189;-77
2023/10/18 15:59:41;;;;;;;6.47;5.87;;;;;;;;;;5073609;28;20222;-77
2023/10/18 16:02:12;;;;;;;6.47;5.73;;;;;;;;;;5072939;28;20225;-77
2023/10/18 16:04:39;;;;;;;6.03;5.00;;;;;;;;;;5075529;28;20304;-77
2023/10/18 16:07:05;;;;;;;5.83;4.97;;;;;;;;;;5092820;28;20206;-77
2023/10/18 16:09:31;;;;;;;6.93;5.37;;;;;;;;;;5090159;28;20186;-77
2023/10/18 16:11:58;;;;;;;6.47;5.00;;;;;;;;;;5081859;28;20187;-77
2023/10/18 16:14:28;;;;;;;7.43;4.97;;;;;;;;;;5069641;28;20274;-77
2023/10/18 16:16:54;;;;;;;7.03;5.00;;;;;;;;;;5093194;28;20190;-77
2023/10/18 16:19:20;;;;;;;5.70;5.10;;;;;;;;;;5070730;28;20214;-77
2023/10/18 16:21:46;;;;;;;7.75;5.60;;;;;;;;;;5074763;28;20430;-77
2023/10/18 16:24:12;;;;;;;6.40;5.25;;;;;;;;;;5075733;28;20436;-76
2023/10/18 16:26:38;;;;;;;6.88;6.18;;;;;;;;;;5075446;28;20416;-76
2023/10/18 16:29:06;;;;;;;7.70;5.07;;;;;;;;;;5068972;28;20247;-76
2023/10/18 16:31:33;;;;;;;7.50;6.10;;;;;;;;;;5088851;28;20416;-77
2023/10/18 16:33:59;;;;;;;6.20;5.60;;;;;;;;;;5088427;28;20428;-77